Timeline UpdatesTrip UpdatesNews PostsPvt PostsTravel TipsAdmin PostsConv PostsFollowed PostsChat RequestsBlog PostsPNR Posts

Disclaimer
Search
 
 
Wed Oct 1, 2014 11:28:20 ISTHomeTrainsΣChainsAtlasPNRForumGalleryNewsFAQTripsMembersLoginFeedback
No Recent News for this Train
Other Trains in the News **new
Latest...
.
Sat Jul 30, 2011 (04:46AM)
⇐ Return Journey: Train# 57562

57561/Kacheguda - Manmad Passenger (UnReserved)

Time-Table HAS CHANGED.
Sep 03 (11:09AM)
Change Departure Station:
Change Arrival Station:
Post a Train Travel TipPost a Train Travel Tip **new
Post a Comment/Question/Picture/VideoPost a Comment/Question/Picture/Video
Pantry/Catering
✕ NO Pantry Car
✓ Catering Avbl
RSA - Rake Sharing
57542-57562-57561-57590-57541-57558-57557
Rake/Coach Composition
LOCO-SLR-GEN-GEN-GEN-GEN-GEN-GEN-GEN-GEN-GEN-GEN-SLR.
Loco
MLY WDM 2/3A or WDG 3A.
News    PNR    Forum    Time-Table    Availability    Fare Chart    Map    Arr/Dep History    Trips    Gallery    ΣChains    X/O    Timeline    
Travel Time: 7h 5m    16 halts    Distance: 194 km    Avg Speed: 27 km/hr
Type: Passenger
Zone: SCR/South Central
Departs @ 16:00 (Avg 1h 25m late)
Platform# ???
SMTWTFS
Kodi/KODI 
Arrives @ 23:05 (Avg 1h 24m late)
Platform# 6
SMTWTFS
Manmad Junction/MMR 

16 halts. 17 intermediate Stations between Kodi and Manmad Junction

Show ALL intermediate Stations  Show Old Time-Table

#CodeStation NameX/OArrivesAvgDepartsAvgHaltPFDay#KmSpeedElevZoneAddress
1KCGHyderabad Kacheguda (5)  -04:50+311-430.258494mSCRHyderabad - 500027, Telangana
2VARVidya Nagar (2)  04:52-04:53-1m--1-428.344505mSCRHyderabad, Telangana
3JOOJamai Osmania (2)  04:55-04:56-1m--1-426.836515mSCRHyderabad, Telangana
4ATCArts College (2)X  04:57-04:58-1m--1-426.233521mSCRHyderabad, Telangana
5STPDSitafalmandi (4)  05:00+805:01+91m21-425.180533mSCRSecunderabad, Telangana
6LGDHLalaguda Gate (2)  05:03-05:04-1m--1-422.44543mSCRSecunderabad, Telangana
7MJFMalkajgiri (3)X  05:18+1005:19+101m31-421.527535mSCRSecunderabad, Telangana
8DYEDayanand Nagar (2)  05:21-05:22-1m--1-420.636537mSCRSecunderabad, Telangana
9SFXSafilguda (2)  05:23-05:24-1m--1-420.034544mSCRSecunderabad, Telangana
10RKORamakistapuram Gate (2)  05:27-05:28-1m--1-418.333561mSCRSecunderabad, Telangana
11AMQAmmuguda Halt (2)  05:30-05:31-1m--1-417.283569mSCRSecunderabad, Telangana
12CVBCavalry Barracks (3)  05:32+1205:33+131m31-415.824575mSCRSecunderabad, Telangana
13ALWAlwal (2)  05:36-05:37-1m--1-414.648580mSCRSecunderabad, Telangana
14BOZBolarum Bazar (2)  05:39-05:40-1m--1-412.913584mSCRSecunderabad, Telangana
15BMOBolarum (3)X  05:48+1005:49+111m11-411.327597mSCRSecunderabad, Telangana
16GDPLGundla Pochampally (1)X  06:00 06:01+806:01 06:02+101m--1-405.9103601mSCRRangareddy Dist., Telangana
17GWVGowdavalli (1)X  06:05-06:06-1m11-400.823601mSCRRangareddy Dist., Telangana
18MEDMedchal (3)  06:15+906:16+121m21-397.479602mSCRRangareddy Dist., Telangana
19DBVDabilpur (1)  06:19-06:20-1m11-393.480611mSCRRangareddy Dist., Telangana
20KUCHKuchavaram Halt (1)X  06:25-06:26-1m11-386.820595mSCRRangareddy, Telangana
21MOBManoharabad (2)  06:34+1106:35+181m--1-384.1-593mSCRMedak Dist., Telangana
22PAPMPalata Potaram (1)  06:39-06:40-1m11-371.626522mSCRMedak Dist., Telangana
23BMPLBrahmanapalli (1)  06:44-06:45-1m11-369.921528mSCRMedak Dist., Telangana
24MEMasaipet (2)X  06:53+1706:54+221m--1-367.046520mSCRMedak Dist., Telangana
25SHANSrinivasa NagarX  06:58-06:59-1m--1-363.932522mSCRMedak Dist., Telangana
26WDRWadiaram (2)  07:08+2107:09+231m--1-359.266547mSCRMedak Dist., Telangana
27MZLMirzapalli (1)  07:15+2507:16+291m11-352.629530mSCRMedak Dist., Telangana
28AKEAkanapet (1)X  07:38+1907:39+211m11-341.837566mSCRMedak District., Telangana
29BKUBhiknur  07:49+2107:50+221m--1-335.861575mSCRNizamabad Dist., Telangana
30THPRTippapur (1)  07:54-07:55-1m11-331.755549mSCRNizamabad Dist., Telangana
31TMDTalmadla  08:01+2508:02+251m--1-326.123559mSCRNizamabad Dist., Telangana
32KMCKamareddi (3)  08:28+1208:30+142m11-316.175528mSCRNizamabad Dist., Telangana
33UPWUppalavai  08:39+1608:40+161m--1-304.957529mSCRNizamabad Dist., Telangana
34SCPSirnapalli  08:51+1608:52+171m--1-294.553456mSCRNizamabad Dist., Telangana
35IDLIndalvai (1)X  09:01+1809:02+201m11-286.647439mSCRNizamabad Dist., Telangana
36DHPDichpalliX  09:14+1909:15+211m--1-277.139424mSCRNizamabad Dist., Telangana
37NZBNizamabad (3)  09:35+1609:40+175m31-264.347384mSCRNizamabad, Telangana
38JKMJankampet Junction (1)  09:48+1909:49+191m11-258.063391mSCRJankampet Junction nizamabad dist., Telangana
39NVTNavipet (2)  09:58+2109:59+211m--1-248.670374mSCRNizamabad Dist., Telangana
40FKBFakrabad (1)  10:05-10:06-1m11-241.618348mSCRNizamabad Dist., Telangana
41BSXBasar (2)X  10:28+910:30+122m21-234.959358mSCRDist Adilabad, Telangana
42DABDharmabad (2)  10:40+1310:41+161m--1-225.078354mSCRDegaon, Maharashtra
43SQESamarala Halt  10:46-10:47-1m--1-218.654360mSCRDharmabad, Maharashtra
44KEKKarkheli  10:55+1810:56+181m--1-211.355358mSCRBiloli, Maharashtra
45BLSABolsa  11:04+1911:05+191m--1-204.056361mSCRDharmabad, Maharashtra
46UMRIUmri (1)  11:14+1911:15+191m11-195.694381mSCRHuzur Sahib Nanded, Maharashtra
47SLGHShelgaon Halt  11:20-11:21-1m--1-187.833378mSCRMudkhed, Maharashtra
48SVNSivungaon  11:29+2011:30+201m--1-183.317395mSCRHuzur Sahib Nanded, Maharashtra
49MUEMudkhed Junction (4)  11:55+2411:57+252m--1-176.161378mSCRMudkhed, Maharashtra
50MGCMugat  12:06+2912:07+301m--1-166.940360mSCRHuzur Sahib Nanded, Maharashtra
51PARDPathradX  12:12-12:13-1m--1-163.639363mSCRHuzur Sahib Nanded, Maharashtra
52MTDIMaltekdi  12:23 12:24+2912:24 12:25+311m--1-156.533362mSCRNanded, Maharashtra
53NEDHazur Sahib Nanded (4)X  12:30+2512:35+295m--1-153.843366mSCRNanded, Maharashtra
54WNGWanegaon  12:44-12:45-1m--1-147.331371mSCRChudawa, Maharashtra
55LBGLimbgaon (2)X  12:54+3712:55+381m--1-142.664390mSCRHuzur Sahib Nanded, Maharashtra
56CRUChudawa (1)X  13:04+4113:05+461m11-133.040392mSCRHingoli, Maharashtra
57PAUPurna Junction (4)X  13:20+4413:25+535m--1-123.152384mSCRPurna, Maharashtra
58MQLMirkhal  13:39+5613:40+561m--1-111.036405mSCRPurna, Maharashtra
59PIZPingli (1)  13:49+5613:50+591m11-105.751399mSCRParbhani, Maharashtra
60PBNParbhani Junction (3)X  14:03+4214:05+452m11-94.773414mSCRParbhani 431401, Maharashtra
61PGPergaon  14:15+1:0614:16+1:071m--1-82.673441mSCRParbhani, Maharashtra
62DAVDevalgaon Avchar  14:21+1:1014:22+1:131m--1-76.579425mSCRParbhani, Maharashtra
63MVOManwath Road (2)  14:29+1:1414:30+1:161m--1-67.354421mSCRParbhani, Maharashtra
64DGPPDhengli PimpalgaonX  14:36+1:2214:37+1:231m--1-61.926407mSCRSatuna, Maharashtra
65SELUSelu (2)  14:59+1:0615:00+1:081m--1-52.368436mSCRParbhani, Maharashtra
66SCOSatunaX  15:09+1:1715:10+1:191m--1-42.153440mSCRSatona, Maharashtra
67UPRUsmanpur  15:19+1:1915:20+1:201m--1-34.263444mSCRUsmanpur, Maharashtra
68PTUPartur (2)  15:29+1:1915:30+1:211m--1-24.748465mSCRJalna, Maharashtra
69PDGParadgaon  15:39-15:40-1m--1-17.542454mSCRUsmanpur, Maharashtra
70RNERanjani  15:49+1:1915:50+1:201m--1-11.275469mSCRJalna, Maharashtra
71KODIKodi»X  15:59+1:2416:00+1:251m--10.066473mSCRRanjani, Maharashtra
72SVDSarwariX  16:09+1:2216:10+1:231m--110.08493mSCRRanjani, Maharashtra
73JJalna (3)  17:23+2517:25+312m--119.781502mSCRJalna, Maharashtra
74BDUBadnapur  17:39+3517:40+441m--138.771523mSCRJalna, Maharashtra
75KMVKarmad  17:53+5017:54+551m--154.124567mSCRAurangabad, Maharashtra
76CTHChikalthan  18:04+1:0118:05+1:031m--158.1-582mSCRAurangabad, Maharashtra
77MKDDMukundwadi Halt (1)X  18:09-18:10-1m1172.411580mSCRAurangabad, Maharashtra
78AWBAurangabad (5)X  19:05+2519:10+295m--182.383561mSCRAurangabad 431001, Maharashtra
79DLBDaulatabad (1)  19:19+3319:20+341m1194.862575mSCRDaulatabad, Maharashtra
80POZPotul (1)  19:38 19:29+3019:39 19:30+311m11104.151554mSCRLasur, Maharashtra
81LSRLasur (2)X  19:44+3319:45+341m--1115.9101536mSCRAurangabad, Maharashtra
82KAJGKaranjgaonX  19:51+3919:52+421m--1126.031523mSCRLasur, Maharashtra
83PSDParsoda  20:01+4120:02+431m--1130.762530mSCRRotegaon, Maharashtra
84RGORotegaonX  20:14+4420:15+451m--1143.0145547mSCRAurangabad, Maharashtra
85TRTarur  20:24+5020:25+521m--1164.811586mSCRTaru, Maharashtra
86NSLNagarsol (2)X  20:59+3221:00+381m--1171.011589mSCRDist. Nashik, Maharashtra
87ANKAnkai (3)X  21:54+2621:55+1:291m31181.011620mSCRDist. Nashik, Maharashtra
88MMRManmad Junction (6)•  23:05+1:24-61193.9-580mCRManmad 423104, Maharashtra
Scroll to Top
Scroll to Bottom